createdAt,value
2018-09-01T00:00:13.606Z,0
2018-09-01T00:01:23.573Z,0
2018-09-01T00:02:33.596Z,0
2018-09-01T00:03:43.551Z,0
2018-09-01T00:04:53.501Z,0
2018-09-01T00:06:03.475Z,0
2018-09-01T00:07:13.444Z,0
2018-09-01T00:08:23.414Z,0
2018-09-01T00:09:33.120Z,0
2018-09-01T00:10:42.564Z,0
2018-09-01T00:11:52.265Z,0
2018-09-01T00:13:01.980Z,0
2018-09-01T00:14:11.677Z,0
2018-09-01T00:15:21.645Z,0
2018-09-01T00:16:31.605Z,0
2018-09-01T00:17:41.309Z,0
2018-09-01T00:18:51.263Z,0
2018-09-01T00:20:00.971Z,0
2018-09-01T00:21:10.935Z,0
2018-09-01T00:22:20.906Z,0
2018-09-01T00:23:30.869Z,0
2018-09-01T00:24:40.838Z,0
2018-09-01T00:25:50.811Z,0
2018-09-01T00:27:00.777Z,0
2018-09-01T00:28:10.741Z,0
2018-09-01T00:29:20.714Z,0
2018-09-01T00:30:30.747Z,0
2018-09-01T00:31:40.758Z,0
2018-09-01T00:32:50.453Z,0
2018-09-01T00:34:00.420Z,0
2018-09-01T00:35:10.127Z,0
2018-09-01T00:36:20.085Z,0
2018-09-01T00:37:30.292Z,0
2018-09-01T00:38:40.013Z,0
2018-09-01T00:39:49.455Z,0
2018-09-01T00:40:59.429Z,0
2018-09-01T00:42:09.404Z,0
2018-09-01T00:43:19.363Z,0
2018-09-01T00:44:29.324Z,0
2018-09-01T00:45:39.029Z,0
2018-09-01T00:46:48.995Z,0
2018-09-01T00:47:58.952Z,0
2018-09-01T00:49:08.914Z,0
2018-09-01T00:50:18.872Z,0
2018-09-01T00:51:28.831Z,0
2018-09-01T00:52:38.798Z,0
2018-09-01T00:53:48.763Z,0
2018-09-01T00:54:58.732Z,0
2018-09-01T00:56:08.677Z,0
2018-09-01T00:57:18.641Z,0
2018-09-01T00:58:28.358Z,0
2018-09-01T00:59:38.062Z,0
2018-09-01T01:00:48.018Z,0
2018-09-01T01:01:57.963Z,0
2018-09-01T01:03:07.920Z,0
2018-09-01T01:04:17.351Z,0
2018-09-01T01:05:27.048Z,0
2018-09-01T01:06:37.003Z,0
2018-09-01T01:07:46.966Z,0
2018-09-01T01:08:56.680Z,0
2018-09-01T01:10:06.647Z,0
2018-09-01T01:11:16.400Z,0
2018-09-01T01:12:26.382Z,0
2018-09-01T01:13:36.083Z,0
2018-09-01T01:14:46.041Z,0
2018-09-01T01:15:55.742Z,0
2018-09-01T01:17:05.692Z,0
2018-09-01T01:18:15.130Z,0
2018-09-01T01:19:25.110Z,0
2018-09-01T01:20:34.826Z,0
2018-09-01T01:21:44.519Z,0
2018-09-01T01:22:54.476Z,0
2018-09-01T01:24:03.922Z,0
2018-09-01T01:25:13.610Z,0
2018-09-01T01:26:23.568Z,0
2018-09-01T01:27:33.274Z,0
2018-09-01T01:28:42.979Z,0
2018-09-01T01:29:52.681Z,0
2018-09-01T01:31:02.380Z,0
2018-09-01T01:32:12.335Z,0
2018-09-01T01:33:22.291Z,0
2018-09-01T01:34:32.234Z,0
2018-09-01T01:35:41.946Z,0
2018-09-01T01:36:51.906Z,0
2018-09-01T01:38:01.877Z,0
2018-09-01T01:39:11.572Z,0
2018-09-01T01:40:21.531Z,0
2018-09-01T01:41:31.489Z,0
2018-09-01T01:42:41.454Z,0
2018-09-01T01:43:51.406Z,0
2018-09-01T01:45:01.364Z,0
2018-09-01T01:46:11.066Z,0
2018-09-01T01:47:21.031Z,0
2018-09-01T01:48:30.736Z,0
2018-09-01T01:49:41.094Z,0
2018-09-01T01:50:51.291Z,0
2018-09-01T01:52:01.262Z,0
2018-09-01T01:53:11.227Z,0
2018-09-01T01:54:20.929Z,0
2018-09-01T01:55:30.634Z,0
2018-09-01T01:56:40.590Z,0
2018-09-01T01:57:50.544Z,0
2018-09-01T01:59:00.500Z,0
2018-09-01T02:00:10.465Z,0
2018-09-01T02:01:20.431Z,0
2018-09-01T02:02:30.377Z,0
2018-09-01T02:03:40.324Z,0
2018-09-01T02:04:50.296Z,0
2018-09-01T02:05:59.992Z,0
2018-09-01T02:07:09.688Z,0
2018-09-01T02:08:19.651Z,0
2018-09-01T02:09:29.614Z,0
2018-09-01T02:10:39.329Z,0
2018-09-01T02:11:49.063Z,0
2018-09-01T02:12:59.014Z,0
2018-09-01T02:14:08.741Z,0
2018-09-01T02:15:18.693Z,0
2018-09-01T02:16:28.441Z,0
2018-09-01T02:17:38.152Z,0
2018-09-01T02:18:48.118Z,0
2018-09-01T02:19:58.069Z,0
2018-09-01T02:21:07.788Z,0
2018-09-01T02:22:17.750Z,0
2018-09-01T02:23:27.852Z,0
2018-09-01T02:24:37.811Z,0
2018-09-01T02:25:47.518Z,0
2018-09-01T02:26:57.225Z,0
2018-09-01T02:28:07.188Z,0
2018-09-01T02:29:16.889Z,0
2018-09-01T02:30:26.843Z,0
2018-09-01T02:31:36.831Z,0
2018-09-01T02:32:46.797Z,0
2018-09-01T02:33:56.756Z,0
2018-09-01T02:35:06.207Z,0
2018-09-01T02:36:15.914Z,0
2018-09-01T02:37:25.873Z,0
2018-09-01T02:38:35.847Z,0
2018-09-01T02:39:45.808Z,0
2018-09-01T02:40:55.768Z,0
2018-09-01T02:42:05.484Z,0
2018-09-01T02:43:15.457Z,0
2018-09-01T02:44:25.429Z,0
2018-09-01T02:45:35.131Z,0
2018-09-01T02:46:45.096Z,0
2018-09-01T02:47:54.795Z,0
2018-09-01T02:49:04.241Z,0
2018-09-01T02:50:14.187Z,0
2018-09-01T02:51:24.153Z,0
2018-09-01T02:52:34.122Z,0
2018-09-01T02:53:44.090Z,0
2018-09-01T02:54:54.052Z,0
2018-09-01T02:56:04.008Z,0
2018-09-01T02:57:13.987Z,0
2018-09-01T02:58:23.688Z,0
2018-09-01T02:59:33.653Z,0
2018-09-01T03:00:43.597Z,0
2018-09-01T03:01:53.558Z,0
2018-09-01T03:03:03.522Z,0
2018-09-01T03:04:13.484Z,0
2018-09-01T03:05:23.203Z,0
2018-09-01T03:06:33.156Z,0
2018-09-01T03:07:43.112Z,0
2018-09-01T03:08:53.068Z,0
2018-09-01T03:10:02.765Z,0
2018-09-01T03:11:12.715Z,0
2018-09-01T03:12:22.675Z,0
2018-09-01T03:13:32.622Z,0
2018-09-01T03:14:42.315Z,0
2018-09-01T03:15:52.275Z,0
2018-09-01T03:17:02.232Z,0
2018-09-01T03:18:12.185Z,0
2018-09-01T03:19:21.919Z,0
2018-09-01T03:20:31.354Z,0
2018-09-01T03:21:41.053Z,0
2018-09-01T03:22:51.013Z,0
2018-09-01T03:24:00.963Z,0
2018-09-01T03:25:10.917Z,0
2018-09-01T03:26:20.884Z,0
2018-09-01T03:27:30.842Z,0
2018-09-01T03:28:40.811Z,0
2018-09-01T03:29:50.770Z,0
2018-09-01T03:31:00.736Z,0
2018-09-01T03:32:10.448Z,0
2018-09-01T03:33:20.428Z,0
2018-09-01T03:34:30.122Z,0
2018-09-01T03:35:40.072Z,0
2018-09-01T03:36:49.768Z,0
2018-09-01T03:37:59.213Z,0
2018-09-01T03:39:09.191Z,0
2018-09-01T03:40:19.146Z,0
2018-09-01T03:41:28.837Z,0
2018-09-01T03:42:38.545Z,0
2018-09-01T03:43:48.495Z,4
2018-09-01T03:44:58.465Z,4
2018-09-01T03:46:08.429Z,4
2018-09-01T03:47:18.390Z,4
2018-09-01T03:48:28.095Z,8
2018-09-01T03:49:37.807Z,4
2018-09-01T03:50:47.776Z,12
2018-09-01T03:51:57.473Z,12
2018-09-01T03:53:07.428Z,12
2018-09-01T03:54:17.115Z,16
2018-09-01T03:55:27.066Z,20
2018-09-01T03:56:37.024Z,24
2018-09-01T03:57:46.734Z,28
2018-09-01T03:58:56.694Z,36
2018-09-01T04:00:06.391Z,40
2018-09-01T04:01:16.352Z,52
2018-09-01T04:02:26.326Z,60
2018-09-01T04:03:36.026Z,72
2018-09-01T04:04:45.736Z,88
2018-09-01T04:05:55.441Z,100
2018-09-01T04:07:04.906Z,120
2018-09-01T04:08:14.861Z,136
2018-09-01T04:09:24.814Z,156
2018-09-01T04:10:34.515Z,184
2018-09-01T04:11:44.483Z,208
2018-09-01T04:12:53.933Z,240
2018-09-01T04:14:03.940Z,280
2018-09-01T04:15:13.634Z,324
2018-09-01T04:16:23.351Z,364
2018-09-01T04:17:33.322Z,412
2018-09-01T04:18:43.300Z,460
2018-09-01T04:19:53.006Z,504
2018-09-01T04:21:02.963Z,556
2018-09-01T04:22:12.922Z,608
2018-09-01T04:23:22.623Z,664
2018-09-01T04:24:32.324Z,720
2018-09-01T04:25:42.026Z,784
2018-09-01T04:26:51.985Z,848
2018-09-01T04:28:01.945Z,920
2018-09-01T04:29:11.894Z,992
2018-09-01T04:30:21.854Z,1068
2018-09-01T04:31:31.570Z,1148
2018-09-01T04:32:41.523Z,1228
2018-09-01T04:33:51.490Z,1312
2018-09-01T04:35:01.463Z,1392
2018-09-01T04:36:11.436Z,1472
2018-09-01T04:37:21.386Z,1552
2018-09-01T04:38:31.078Z,1628
2018-09-01T04:39:41.037Z,1700
2018-09-01T04:40:50.997Z,1780
2018-09-01T04:42:00.702Z,1856
2018-09-01T04:43:10.422Z,1944
2018-09-01T04:44:20.120Z,2032
2018-09-01T04:45:30.080Z,2120
2018-09-01T04:46:39.773Z,2204
2018-09-01T04:47:49.729Z,2292
2018-09-01T04:48:59.697Z,2376
2018-09-01T04:50:09.648Z,2460
2018-09-01T04:51:19.092Z,2544
2018-09-01T04:52:29.041Z,2624
2018-09-01T04:53:39.040Z,2712
2018-09-01T04:54:49.043Z,2804
2018-09-01T04:55:58.770Z,2896
2018-09-01T04:57:08.739Z,3000
2018-09-01T04:58:18.690Z,3104
2018-09-01T04:59:28.397Z,3216
2018-09-01T05:00:38.204Z,3340
2018-09-01T05:01:48.158Z,3460
2018-09-01T05:02:58.103Z,3576
2018-09-01T05:04:08.081Z,3676
2018-09-01T05:05:18.041Z,3760
2018-09-01T05:06:27.503Z,3856
2018-09-01T05:07:36.952Z,3928
2018-09-01T05:08:46.647Z,4008
2018-09-01T05:09:56.606Z,4088
2018-09-01T05:11:06.564Z,4160
2018-09-01T05:12:16.546Z,4224
2018-09-01T05:13:26.513Z,4316
2018-09-01T05:14:36.517Z,4408
2018-09-01T05:15:46.473Z,4544
2018-09-01T05:16:56.167Z,4672
2018-09-01T05:18:05.886Z,4796
2018-09-01T05:19:15.836Z,4940
2018-09-01T05:20:25.542Z,5020
2018-09-01T05:21:35.278Z,5112
2018-09-01T05:22:45.230Z,5172
2018-09-01T05:23:55.378Z,5268
2018-09-01T05:25:05.481Z,5344
2018-09-01T05:26:15.197Z,5400
2018-09-01T05:27:25.155Z,5476
2018-09-01T05:28:35.110Z,5556
2018-09-01T05:29:44.805Z,5652
2018-09-01T05:30:54.758Z,5780
2018-09-01T05:32:04.715Z,5976
2018-09-01T05:33:14.417Z,6164
2018-09-01T05:34:24.119Z,6364
2018-09-01T05:35:34.078Z,6532
2018-09-01T05:36:43.783Z,6660
2018-09-01T05:37:53.783Z,6720
2018-09-01T05:39:03.748Z,6748
2018-09-01T05:40:13.454Z,6732
2018-09-01T05:41:23.502Z,6672
2018-09-01T05:42:33.459Z,6676
2018-09-01T05:43:43.080Z,6700
2018-09-01T05:44:53.149Z,6736
2018-09-01T05:46:03.102Z,6784
2018-09-01T05:47:13.082Z,6876
2018-09-01T05:48:23.052Z,6968
2018-09-01T05:49:33.011Z,7076
2018-09-01T05:50:43.108Z,7220
2018-09-01T05:51:53.047Z,7424
2018-09-01T05:53:03.010Z,7600
2018-09-01T05:54:12.981Z,7756
2018-09-01T05:55:22.957Z,7908
2018-09-01T05:56:32.667Z,7988
2018-09-01T05:57:42.118Z,8072
2018-09-01T05:58:51.841Z,8164
2018-09-01T06:00:01.809Z,8300
2018-09-01T06:01:11.783Z,8576
2018-09-01T06:02:21.744Z,8748
2018-09-01T06:03:31.717Z,8844
2018-09-01T06:04:41.418Z,8952
2018-09-01T06:05:51.637Z,9072
2018-09-01T06:07:01.418Z,9296
2018-09-01T06:08:11.377Z,9380
2018-09-01T06:09:21.350Z,9216
2018-09-01T06:10:31.058Z,9272
2018-09-01T06:11:41.026Z,9376
2018-09-01T06:12:50.981Z,9480
2018-09-01T06:14:00.952Z,9616
2018-09-01T06:15:10.666Z,9796
2018-09-01T06:16:20.377Z,9952
2018-09-01T06:17:30.630Z,10108
2018-09-01T06:18:40.762Z,10256
2018-09-01T06:19:50.721Z,10300
2018-09-01T06:21:00.681Z,10320
2018-09-01T06:22:10.376Z,10328
2018-09-01T06:23:20.388Z,10296
2018-09-01T06:24:30.359Z,10404
2018-09-01T06:25:40.330Z,10424
2018-09-01T06:26:50.294Z,10404
2018-09-01T06:27:59.738Z,10408
2018-09-01T06:29:09.698Z,10524
2018-09-01T06:30:20.193Z,10572
2018-09-01T06:31:30.024Z,10732
2018-09-01T06:32:39.981Z,10932
2018-09-01T06:33:49.428Z,11152
2018-09-01T06:34:59.383Z,11340
2018-09-01T06:36:09.088Z,11472
2018-09-01T06:37:18.807Z,11468
2018-09-01T06:38:28.800Z,11508
2018-09-01T06:39:38.503Z,11476
2018-09-01T06:40:48.470Z,11412
2018-09-01T06:41:58.441Z,11300
2018-09-01T06:43:08.834Z,11300
2018-09-01T06:44:18.607Z,11244
2018-09-01T06:45:28.573Z,11196
2018-09-01T06:46:38.540Z,11204
2018-09-01T06:47:48.256Z,11276
2018-09-01T06:48:57.996Z,11380
2018-09-01T06:50:07.992Z,11512
2018-09-01T06:51:17.446Z,11624
2018-09-01T06:52:27.189Z,11768
2018-09-01T06:53:37.166Z,11904
2018-09-01T06:54:47.126Z,12052
2018-09-01T06:55:57.086Z,12244
2018-09-01T06:57:07.066Z,12500
2018-09-01T06:58:17.044Z,12624
2018-09-01T06:59:27.001Z,12780
2018-09-01T07:00:36.968Z,12848
2018-09-01T07:01:46.921Z,12896
2018-09-01T07:02:56.634Z,12784
2018-09-01T07:04:06.604Z,12600
2018-09-01T07:05:16.329Z,12468
2018-09-01T07:06:26.315Z,12344
2018-09-01T07:07:36.285Z,12128
2018-09-01T07:08:46.324Z,12152
2018-09-01T07:09:56.445Z,12196
2018-09-01T07:11:06.410Z,12108
2018-09-01T07:12:16.369Z,12052
2018-09-01T07:13:26.328Z,12276
2018-09-01T07:14:35.765Z,12384
2018-09-01T07:15:45.726Z,12364
2018-09-01T07:16:55.432Z,12448
2018-09-01T07:18:05.143Z,12564
2018-09-01T07:19:15.108Z,12744
2018-09-01T07:20:24.810Z,12872
2018-09-01T07:21:34.812Z,12764
2018-09-01T07:22:44.777Z,12736
2018-09-01T07:23:54.484Z,12648
2018-09-01T07:25:04.454Z,12648
2018-09-01T07:26:14.424Z,12648
2018-09-01T07:27:24.398Z,12604
2018-09-01T07:28:34.376Z,12460
2018-09-01T07:29:44.354Z,12320
2018-09-01T07:30:56.060Z,12224
2018-09-01T07:32:06.920Z,12036
2018-09-01T07:33:16.381Z,11872
2018-09-01T07:34:26.089Z,12004
2018-09-01T07:35:35.786Z,12072
2018-09-01T07:36:45.738Z,12204
2018-09-01T07:37:55.438Z,12172
2018-09-01T07:39:05.422Z,12108
2018-09-01T07:40:15.131Z,12092
2018-09-01T07:41:25.100Z,12136
2018-09-01T07:42:34.824Z,12200
2018-09-01T07:43:44.541Z,12260
2018-09-01T07:44:54.069Z,12296
2018-09-01T07:46:03.780Z,12308
2018-09-01T07:47:13.504Z,12324
2018-09-01T07:48:23.228Z,12368
2018-09-01T07:49:33.182Z,12400
2018-09-01T07:50:43.138Z,12440
2018-09-01T07:51:53.109Z,12488
2018-09-01T07:53:03.069Z,12532
2018-09-01T07:54:13.056Z,12564
2018-09-01T07:55:22.763Z,12596
2018-09-01T07:56:32.721Z,12628
2018-09-01T07:57:42.676Z,12696
2018-09-01T07:58:52.638Z,12712
2018-09-01T08:00:02.607Z,12852
2018-09-01T08:01:12.314Z,12916
2018-09-01T08:02:22.302Z,12976
2018-09-01T08:03:32.270Z,13048
2018-09-01T08:04:42.248Z,13092
2018-09-01T08:05:51.949Z,13196
2018-09-01T08:07:01.929Z,13316
2018-09-01T08:08:11.624Z,13424
2018-09-01T08:09:21.604Z,13520
2018-09-01T08:10:31.317Z,13620
2018-09-01T08:11:41.068Z,13708
2018-09-01T08:12:51.028Z,13784
2018-09-01T08:14:02.025Z,13864
2018-09-01T08:15:12.219Z,13960
2018-09-01T08:16:22.184Z,14044
2018-09-01T08:17:31.894Z,14400
2018-09-01T08:18:41.873Z,24160
2018-09-01T08:19:51.580Z,31296
2018-09-01T08:21:01.294Z,32736
2018-09-01T08:22:11.020Z,34784
2018-09-01T08:23:20.725Z,34048
2018-09-01T08:24:30.713Z,34560
2018-09-01T08:25:40.432Z,35744
2018-09-01T08:26:50.416Z,35936
2018-09-01T08:28:00.134Z,26400
2018-09-01T08:29:09.847Z,38464
2018-09-01T08:30:19.823Z,38208
2018-09-01T08:31:29.787Z,37248
2018-09-01T08:32:39.545Z,38656
2018-09-01T08:33:49.700Z,38592
2018-09-01T08:34:59.767Z,38848
2018-09-01T08:36:09.471Z,41056
2018-09-01T08:37:19.447Z,41184
2018-09-01T08:38:29.423Z,38592
2018-09-01T08:39:39.386Z,39648
2018-09-01T08:40:49.107Z,42016
2018-09-01T08:41:59.076Z,42880
2018-09-01T08:43:08.792Z,45504
2018-09-01T08:44:18.540Z,44608
2018-09-01T08:45:28.346Z,45856
2018-09-01T08:46:38.419Z,47488
2018-09-01T08:47:48.393Z,47840
2018-09-01T08:48:58.377Z,48288
2018-09-01T08:50:08.364Z,49024
2018-09-01T08:51:18.346Z,49696
2018-09-01T08:52:28.066Z,50176
2018-09-01T08:53:37.776Z,52576
2018-09-01T08:54:47.257Z,53312
2018-09-01T08:55:57.225Z,53024
2018-09-01T08:57:07.207Z,53888
2018-09-01T08:58:17.229Z,55040
2018-09-01T08:59:27.200Z,54848
2018-09-01T09:00:36.931Z,56288
2018-09-01T09:01:46.909Z,58016
2018-09-01T09:02:56.633Z,58496
2018-09-01T09:04:06.610Z,57376
2018-09-01T09:05:16.341Z,57664
2018-09-01T09:06:26.056Z,56256
2018-09-01T09:07:36.045Z,61216
2018-09-01T09:08:46.023Z,63552
2018-09-01T09:09:55.999Z,64480
2018-09-01T09:11:05.967Z,63968
2018-09-01T09:12:15.933Z,63360
2018-09-01T09:13:25.909Z,63872
2018-09-01T09:14:35.628Z,66528
2018-09-01T09:15:45.586Z,70432
2018-09-01T09:16:55.310Z,64832
2018-09-01T09:18:05.014Z,44000
2018-09-01T09:19:14.978Z,25696
2018-09-01T09:20:24.965Z,23552
2018-09-01T09:21:34.731Z,23104
2018-09-01T09:22:44.714Z,68736
2018-09-01T09:23:54.693Z,66880
2018-09-01T09:25:04.160Z,70304
2018-09-01T09:26:13.904Z,70656
2018-09-01T09:27:23.874Z,75712
2018-09-01T09:28:33.845Z,74560
2018-09-01T09:29:43.330Z,75520
2018-09-01T09:30:53.061Z,74720
2018-09-01T09:32:02.265Z,73952
2018-09-01T09:33:12.252Z,77024
2018-09-01T09:34:22.013Z,76544
2018-09-01T09:35:31.816Z,77312
2018-09-01T09:36:41.570Z,78048
2018-09-01T09:37:51.301Z,78112
2018-09-01T09:39:01.289Z,80384
2018-09-01T09:40:11.015Z,84672
2018-09-01T09:41:20.998Z,85504
2018-09-01T09:42:30.743Z,83424
2018-09-01T09:43:40.478Z,87616
2018-09-01T09:44:50.462Z,88160
2018-09-01T09:46:00.173Z,89504
2018-09-01T09:47:10.156Z,88384
2018-09-01T09:48:20.159Z,80288
2018-09-01T09:49:30.163Z,88512
2018-09-01T09:50:39.880Z,91648
2018-09-01T09:51:49.845Z,33280
2018-09-01T09:53:00.060Z,86720
2018-09-01T09:54:10.261Z,34464
2018-09-01T09:55:20.259Z,30976
2018-09-01T09:56:30.231Z,31616
2018-09-01T09:57:40.205Z,30176
2018-09-01T09:58:49.921Z,62080
2018-09-01T09:59:59.910Z,89920
2018-09-01T10:01:10.465Z,94688
2018-09-01T10:02:20.484Z,98944
2018-09-01T10:03:30.534Z,96640
2018-09-01T10:04:39.990Z,93568
2018-09-01T10:05:50.448Z,94400
2018-09-01T10:07:00.172Z,77408
2018-09-01T10:08:10.161Z,33152
2018-09-01T10:09:20.151Z,102976
2018-09-01T10:10:30.126Z,101056
2018-09-01T10:11:40.119Z,100160
2018-09-01T10:12:49.583Z,103328
2018-09-01T10:13:59.577Z,39584
2018-09-01T10:15:09.289Z,61856
2018-09-01T10:16:19.048Z,110688
2018-09-01T10:17:29.035Z,108640
2018-09-01T10:18:39.032Z,97344
2018-09-01T10:19:48.770Z,41824
2018-09-01T10:20:58.765Z,29792
2018-09-01T10:22:08.507Z,28192
2018-09-01T10:23:18.238Z,28512
2018-09-01T10:24:28.214Z,38592
2018-09-01T10:25:38.174Z,30176
2018-09-01T10:26:47.939Z,38816
2018-09-01T10:27:57.962Z,37088
2018-09-01T10:29:07.947Z,34304
2018-09-01T10:30:17.927Z,59584
2018-09-01T10:31:27.664Z,38688
2018-09-01T10:32:37.392Z,40416
2018-09-01T10:33:47.153Z,50912
2018-09-01T10:34:57.280Z,94624
2018-09-01T10:36:07.257Z,107424
2018-09-01T10:37:17.223Z,112640
2018-09-01T10:38:27.530Z,114976
2018-09-01T10:39:37.722Z,65664
2018-09-01T10:40:47.456Z,111808
2018-09-01T10:41:57.441Z,120384
2018-09-01T10:43:07.442Z,83008
2018-09-01T10:44:17.463Z,34048
2018-09-01T10:45:27.244Z,30944
2018-09-01T10:46:37.260Z,30528
2018-09-01T10:47:46.698Z,31392
2018-09-01T10:48:56.423Z,33120
2018-09-01T10:50:06.386Z,35680
2018-09-01T10:51:16.370Z,39296
2018-09-01T10:52:26.408Z,46368
2018-09-01T10:53:36.393Z,57760
2018-09-01T10:54:45.856Z,119744
2018-09-01T10:55:55.829Z,120096
2018-09-01T10:57:05.882Z,116448
2018-09-01T10:58:15.862Z,119680
2018-09-01T10:59:26.335Z,114912
2018-09-01T11:00:36.106Z,112896
2018-09-01T11:01:45.566Z,110720
2018-09-01T11:02:55.536Z,113312
2018-09-01T11:04:05.262Z,114208
2018-09-01T11:05:15.578Z,112288
2018-09-01T11:06:25.551Z,118368
2018-09-01T11:07:35.514Z,115520
2018-09-01T11:08:45.434Z,116736
2018-09-01T11:09:55.408Z,116512
2018-09-01T11:11:05.395Z,116768
2018-09-01T11:12:15.391Z,115936
2018-09-01T11:13:25.141Z,123200
2018-09-01T11:14:34.602Z,114400
2018-09-01T11:15:44.338Z,124448
2018-09-01T11:16:54.309Z,129984
2018-09-01T11:18:04.150Z,58496
2018-09-01T11:19:14.191Z,64704
2018-09-01T11:20:24.592Z,112512
2018-09-01T11:21:34.607Z,102144
2018-09-01T11:22:44.759Z,113376
2018-09-01T11:23:54.749Z,40096
2018-09-01T11:25:04.747Z,37632
2018-09-01T11:26:14.463Z,37088
2018-09-01T11:27:24.578Z,38048
2018-09-01T11:28:34.702Z,38496
2018-09-01T11:29:44.175Z,37952
2018-09-01T11:30:54.158Z,36896
2018-09-01T11:32:03.862Z,38784
2018-09-01T11:33:13.846Z,40640
2018-09-01T11:34:23.843Z,66112
2018-09-01T11:35:33.621Z,106048
2018-09-01T11:36:43.680Z,110368
2018-09-01T11:37:53.763Z,120704
2018-09-01T11:39:03.740Z,124768
2018-09-01T11:40:13.904Z,111904
2018-09-01T11:41:23.974Z,137664
2018-09-01T11:42:34.515Z,118336
2018-09-01T11:43:44.040Z,106688
2018-09-01T11:44:54.030Z,128608
2018-09-01T11:46:04.009Z,104640
2018-09-01T11:47:13.982Z,85472
2018-09-01T11:48:24.020Z,85248
2018-09-01T11:49:34.079Z,38624
2018-09-01T11:50:44.071Z,37408
2018-09-01T11:51:54.054Z,37632
2018-09-01T11:53:03.950Z,37184
2018-09-01T11:54:13.993Z,37056
2018-09-01T11:55:23.733Z,36768
2018-09-01T11:56:33.968Z,38272
2018-09-01T11:57:43.958Z,40224
2018-09-01T11:58:54.669Z,39360
2018-09-01T12:00:04.740Z,36352
2018-09-01T12:01:14.915Z,46304
2018-09-01T12:02:25.109Z,48224
2018-09-01T12:03:35.157Z,48480
2018-09-01T12:04:44.636Z,43840
2018-09-01T12:05:54.622Z,44256
2018-09-01T12:07:04.352Z,42080
2018-09-01T12:08:14.072Z,39136
2018-09-01T12:09:24.264Z,39104
2018-09-01T12:10:33.484Z,40224
2018-09-01T12:11:43.548Z,40160
2018-09-01T12:12:53.514Z,40608
2018-09-01T12:14:03.605Z,41664
2018-09-01T12:15:13.601Z,41120
2018-09-01T12:16:23.077Z,39680
2018-09-01T12:17:33.078Z,38752
2018-09-01T12:18:42.821Z,37728
2018-09-01T12:19:52.551Z,36960
2018-09-01T12:21:02.531Z,35968
2018-09-01T12:22:12.491Z,35424
2018-09-01T12:23:22.562Z,35232
2018-09-01T12:24:32.543Z,35136
2018-09-01T12:25:42.254Z,33664
2018-09-01T12:26:51.960Z,31104
2018-09-01T12:28:01.935Z,29728
2018-09-01T12:29:11.982Z,28480
2018-09-01T12:30:21.955Z,27616
2018-09-01T12:31:31.655Z,26880
2018-09-01T12:32:41.640Z,25696
2018-09-01T12:33:51.624Z,24544
2018-09-01T12:35:01.612Z,23104
2018-09-01T12:36:11.529Z,20160
2018-09-01T12:37:21.285Z,18560
2018-09-01T12:38:31.257Z,17344
2018-09-01T12:39:41.227Z,16324
2018-09-01T12:40:50.934Z,15900
2018-09-01T12:42:01.001Z,15748
2018-09-01T12:43:11.127Z,15804
2018-09-01T12:44:21.104Z,16040
2018-09-01T12:45:31.085Z,16332
2018-09-01T12:46:41.059Z,16576
2018-09-01T12:47:51.028Z,17120
2018-09-01T12:49:00.478Z,17824
2018-09-01T12:50:10.474Z,18656
2018-09-01T12:51:20.192Z,19552
2018-09-01T12:52:29.911Z,20512
2018-09-01T12:53:39.634Z,21600
2018-09-01T12:54:49.352Z,22528
2018-09-01T12:55:59.333Z,23232
2018-09-01T12:57:09.320Z,23904
2018-09-01T12:58:18.782Z,24672
2018-09-01T12:59:28.769Z,25536
2018-09-01T13:00:38.381Z,26400
2018-09-01T13:01:48.078Z,27104
2018-09-01T13:02:57.542Z,27584
2018-09-01T13:04:07.503Z,28288
2018-09-01T13:05:17.484Z,27968
2018-09-01T13:06:27.456Z,29632
2018-09-01T13:07:37.420Z,28160
2018-09-01T13:08:47.397Z,27296
2018-09-01T13:09:57.367Z,26048
2018-09-01T13:11:07.335Z,25440
2018-09-01T13:12:17.305Z,25024
2018-09-01T13:13:27.272Z,25184
2018-09-01T13:14:37.236Z,25600
2018-09-01T13:15:46.961Z,26112
2018-09-01T13:16:56.940Z,26688
2018-09-01T13:18:06.652Z,27296
2018-09-01T13:19:16.393Z,28096
2018-09-01T13:20:26.141Z,28896
2018-09-01T13:21:36.114Z,29632
2018-09-01T13:22:46.090Z,30624
2018-09-01T13:23:56.075Z,31840
2018-09-01T13:25:05.833Z,32960
2018-09-01T13:26:15.812Z,34016
2018-09-01T13:27:25.539Z,35200
2018-09-01T13:28:35.568Z,36288
2018-09-01T13:29:45.552Z,36992
2018-09-01T13:30:55.515Z,38336
2018-09-01T13:32:05.228Z,39936
2018-09-01T13:33:15.204Z,40224
2018-09-01T13:34:25.583Z,40448
2018-09-01T13:35:35.478Z,40800
2018-09-01T13:36:45.444Z,41536
2018-09-01T13:37:55.433Z,42848
2018-09-01T13:39:05.450Z,46656
2018-09-01T13:40:15.795Z,43136
2018-09-01T13:41:25.857Z,60288
2018-09-01T13:42:35.828Z,49216
2018-09-01T13:43:45.286Z,35232
2018-09-01T13:44:55.364Z,33248
2018-09-01T13:46:05.547Z,32032
2018-09-01T13:47:15.754Z,31584
2018-09-01T13:48:25.471Z,29696
2018-09-01T13:49:35.448Z,28832
2018-09-01T13:50:45.163Z,28160
2018-09-01T13:51:55.170Z,27520
2018-09-01T13:53:05.149Z,26816
2018-09-01T13:54:15.117Z,26496
2018-09-01T13:55:24.844Z,26752
2018-09-01T13:56:34.810Z,27904
2018-09-01T13:57:44.544Z,33664
2018-09-01T13:58:54.292Z,29184
2018-09-01T14:00:04.283Z,27040
2018-09-01T14:01:14.273Z,27936
2018-09-01T14:02:24.007Z,28960
2018-09-01T14:03:34.027Z,28992
2018-09-01T14:04:43.736Z,29632
2018-09-01T14:05:53.470Z,30624
2018-09-01T14:07:03.446Z,32448
2018-09-01T14:08:13.421Z,36672
2018-09-01T14:09:23.390Z,54560
2018-09-01T14:10:33.353Z,49440
2018-09-01T14:11:43.061Z,42304
2018-09-01T14:12:53.048Z,48544
2018-09-01T14:14:03.037Z,39392
2018-09-01T14:15:13.015Z,30752
2018-09-01T14:16:22.993Z,28544
2018-09-01T14:17:32.986Z,26944
2018-09-01T14:18:42.963Z,25152
2018-09-01T14:19:52.942Z,23648
2018-09-01T14:21:02.793Z,22368
2018-09-01T14:22:12.589Z,21472
2018-09-01T14:23:22.319Z,20736
2018-09-01T14:24:32.296Z,20224
2018-09-01T14:25:41.767Z,19840
2018-09-01T14:26:51.516Z,19296
2018-09-01T14:28:01.275Z,19264
2018-09-01T14:29:11.000Z,19424
2018-09-01T14:30:20.719Z,19744
2018-09-01T14:31:30.457Z,19936
2018-09-01T14:32:40.425Z,20064
2018-09-01T14:33:50.402Z,20000
2018-09-01T14:35:00.381Z,19776
2018-09-01T14:36:11.192Z,19840
2018-09-01T14:37:21.196Z,20224
2018-09-01T14:38:31.048Z,20576
2018-09-01T14:39:41.318Z,20288
2018-09-01T14:40:51.287Z,19424
2018-09-01T14:42:01.007Z,18944
2018-09-01T14:43:10.983Z,18368
2018-09-01T14:44:20.713Z,16564
2018-09-01T14:45:30.476Z,15988
2018-09-01T14:46:40.544Z,15588
2018-09-01T14:47:50.729Z,15328
2018-09-01T14:49:00.697Z,15364
2018-09-01T14:50:10.416Z,15444
2018-09-01T14:51:20.185Z,15532
2018-09-01T14:52:29.935Z,15736
2018-09-01T14:53:39.912Z,15828
2018-09-01T14:54:49.898Z,15852
2018-09-01T14:55:59.897Z,15828
2018-09-01T14:57:09.880Z,15660
2018-09-01T14:58:19.851Z,15484
2018-09-01T14:59:29.954Z,15448
2018-09-01T15:00:39.944Z,15508
2018-09-01T15:01:49.912Z,15752
2018-09-01T15:02:59.902Z,16180
2018-09-01T15:04:09.620Z,16568
2018-09-01T15:05:19.610Z,17376
2018-09-01T15:06:29.581Z,17824
2018-09-01T15:07:39.598Z,18208
2018-09-01T15:08:49.303Z,19040
2018-09-01T15:09:59.288Z,19840
2018-09-01T15:11:08.999Z,20672
2018-09-01T15:12:18.983Z,21536
2018-09-01T15:13:28.960Z,22048
2018-09-01T15:14:38.419Z,21664
2018-09-01T15:15:47.860Z,20896
2018-09-01T15:16:57.838Z,19968
2018-09-01T15:18:07.813Z,19104
2018-09-01T15:19:17.531Z,18144
2018-09-01T15:20:27.518Z,17312
2018-09-01T15:21:37.236Z,16156
2018-09-01T15:22:47.192Z,15724
2018-09-01T15:23:56.655Z,14124
2018-09-01T15:25:06.129Z,13200
2018-09-01T15:26:15.836Z,12156
2018-09-01T15:27:25.566Z,11408
2018-09-01T15:28:35.745Z,10876
2018-09-01T15:29:45.900Z,10580
2018-09-01T15:30:55.878Z,10336
2018-09-01T15:32:05.598Z,10124
2018-09-01T15:33:15.317Z,9876
2018-09-01T15:34:25.045Z,9568